createdAt,value
2023-02-13T00:01:37.542Z,7416.00
2023-02-13T00:06:44.834Z,7668.00
2023-02-13T00:11:52.033Z,7740.00
2023-02-13T00:16:59.197Z,7560.00
2023-02-13T00:22:06.383Z,7704.00
2023-02-13T00:27:13.625Z,7560.00
2023-02-13T00:32:20.847Z,7596.00
2023-02-13T00:37:27.990Z,-468.00
2023-02-13T00:42:35.211Z,-504.00
2023-02-13T00:47:42.381Z,-504.00
2023-02-13T00:52:49.581Z,-504.00
2023-02-13T00:57:56.849Z,-540.00
2023-02-13T01:03:04.051Z,-504.00
2023-02-13T01:08:11.201Z,-504.00
2023-02-13T01:13:18.451Z,-504.00
2023-02-13T01:18:25.600Z,-540.00
2023-02-13T01:23:32.845Z,-504.00
2023-02-13T01:28:40.154Z,-504.00
2023-02-13T01:33:47.245Z,-504.00
2023-02-13T01:38:54.426Z,-504.00
2023-02-13T01:44:01.664Z,-504.00
2023-02-13T01:49:08.992Z,-504.00
2023-02-13T01:54:16.403Z,-504.00
2023-02-13T01:59:23.605Z,-504.00
2023-02-13T02:04:30.768Z,-504.00
2023-02-13T02:09:37.941Z,-504.00
2023-02-13T02:14:45.264Z,-504.00
2023-02-13T02:19:52.387Z,-504.00
2023-02-13T02:24:59.581Z,-504.00
2023-02-13T02:30:06.850Z,-504.00
2023-02-13T02:35:14.080Z,-504.00
2023-02-13T02:40:21.368Z,-504.00
2023-02-13T02:45:28.621Z,-504.00
2023-02-13T02:50:35.819Z,-504.00
2023-02-13T02:55:43.019Z,-504.00
2023-02-13T03:00:50.279Z,-504.00
2023-02-13T03:05:57.461Z,-504.00
2023-02-13T03:11:04.663Z,-504.00
2023-02-13T03:16:12.135Z,-540.00
2023-02-13T03:21:19.222Z,-504.00
2023-02-13T03:26:26.393Z,-504.00
2023-02-13T03:31:33.689Z,-504.00
2023-02-13T03:36:41.124Z,-504.00
2023-02-13T03:41:48.356Z,-504.00
2023-02-13T03:46:55.608Z,-504.00
2023-02-13T03:52:02.879Z,-504.00
2023-02-13T03:57:10.304Z,-504.00
2023-02-13T04:02:17.643Z,-504.00
2023-02-13T04:07:24.806Z,-504.00
2023-02-13T04:12:31.949Z,-504.00
2023-02-13T04:17:39.165Z,-504.00
2023-02-13T04:22:46.320Z,-504.00
2023-02-13T04:27:53.508Z,-504.00
2023-02-13T04:33:00.735Z,-504.00
2023-02-13T04:38:08.038Z,-504.00
2023-02-13T04:43:17.584Z,-504.00
2023-02-13T04:48:24.821Z,-504.00
2023-02-13T04:53:31.945Z,-540.00
2023-02-13T04:58:39.140Z,-504.00
2023-02-13T05:03:46.338Z,-504.00
2023-02-13T05:08:53.612Z,-540.00
2023-02-13T05:14:00.804Z,-504.00
2023-02-13T05:19:08.000Z,-504.00
2023-02-13T05:24:15.159Z,-540.00
2023-02-13T05:29:22.341Z,-504.00
2023-02-13T05:34:29.698Z,-504.00
2023-02-13T05:39:36.850Z,-504.00
2023-02-13T05:44:44.129Z,-504.00
2023-02-13T05:49:51.347Z,-540.00
2023-02-13T05:54:58.619Z,-504.00
2023-02-13T06:00:05.785Z,-504.00
2023-02-13T06:05:13.070Z,-504.00
2023-02-13T06:10:20.204Z,-504.00
2023-02-13T06:15:28.032Z,-540.00
2023-02-13T06:20:35.261Z,-504.00
2023-02-13T06:25:42.510Z,-504.00
2023-02-13T06:30:49.816Z,-504.00
2023-02-13T06:35:57.023Z,-504.00
2023-02-13T06:41:04.223Z,-504.00
2023-02-13T06:46:11.505Z,-504.00
2023-02-13T06:51:18.718Z,-468.00
2023-02-13T06:56:25.939Z,-468.00
2023-02-13T07:01:33.161Z,-468.00
2023-02-13T07:06:40.405Z,-468.00
2023-02-13T07:11:47.628Z,-468.00
2023-02-13T07:16:54.832Z,-432.00
2023-02-13T07:22:02.061Z,-432.00
2023-02-13T07:27:09.230Z,-396.00
2023-02-13T07:32:16.404Z,-396.00
2023-02-13T07:37:23.697Z,-396.00
2023-02-13T07:42:30.889Z,-432.00
2023-02-13T07:47:38.123Z,-360.00
2023-02-13T07:52:45.332Z,-324.00
2023-02-13T07:57:52.492Z,-324.00
2023-02-13T08:02:59.722Z,-360.00
2023-02-13T08:08:06.966Z,-360.00
2023-02-13T08:13:14.182Z,-324.00
2023-02-13T08:18:21.606Z,-324.00
2023-02-13T08:23:29.092Z,-324.00
2023-02-13T08:28:36.080Z,-324.00
2023-02-13T08:33:43.300Z,-288.00
2023-02-13T08:38:50.480Z,-288.00
2023-02-13T08:43:57.656Z,-288.00
2023-02-13T08:49:04.833Z,15120.00
2023-02-13T08:54:12.082Z,13716.00
2023-02-13T08:59:19.205Z,13500.00
2023-02-13T09:04:26.419Z,14076.00
2023-02-13T09:09:33.688Z,15192.00
2023-02-13T09:14:40.755Z,15192.00
2023-02-13T09:19:47.943Z,15120.00
2023-02-13T09:24:55.169Z,15048.00
2023-02-13T09:30:02.322Z,16848.00
2023-02-13T09:35:09.506Z,16524.00
2023-02-13T09:40:16.725Z,16740.00
2023-02-13T09:45:23.931Z,14436.00
2023-02-13T09:50:31.201Z,16380.00
2023-02-13T09:55:38.397Z,14472.00
2023-02-13T10:00:45.598Z,16776.00
2023-02-13T10:05:55.182Z,18756.00
2023-02-13T10:11:00.026Z,17820.00
2023-02-13T10:16:08.004Z,17208.00
2023-02-13T10:21:15.069Z,17496.00
2023-02-13T10:26:22.604Z,15840.00
2023-02-13T10:31:29.866Z,17316.00
2023-02-13T10:36:36.934Z,19980.00
2023-02-13T10:41:44.154Z,20196.00
2023-02-13T10:46:51.388Z,20088.00
2023-02-13T10:51:58.468Z,19440.00
2023-02-13T10:57:05.703Z,20160.00
2023-02-13T11:02:12.863Z,19188.00
2023-02-13T11:07:20.039Z,16128.00
2023-02-13T11:12:27.440Z,14616.00
2023-02-13T11:17:34.592Z,14292.00
2023-02-13T11:22:41.780Z,14220.00
2023-02-13T11:27:49.010Z,14040.00
2023-02-13T11:32:56.166Z,14112.00
2023-02-13T11:38:04.317Z,14184.00
2023-02-13T11:43:11.568Z,14112.00
2023-02-13T11:48:18.721Z,14004.00
2023-02-13T11:53:25.929Z,14040.00
2023-02-13T11:58:33.192Z,14040.00
2023-02-13T12:03:40.388Z,14004.00
2023-02-13T12:08:47.576Z,13968.00
2023-02-13T12:13:54.802Z,13896.00
2023-02-13T12:19:02.031Z,13788.00
2023-02-13T12:24:09.197Z,13896.00
2023-02-13T12:29:16.478Z,13752.00
2023-02-13T12:34:23.582Z,13680.00
2023-02-13T12:39:30.770Z,13644.00
2023-02-13T12:44:38.063Z,13608.00
2023-02-13T12:49:45.221Z,13680.00
2023-02-13T12:54:52.414Z,13572.00
2023-02-13T12:59:59.668Z,13500.00
2023-02-13T13:05:06.841Z,13464.00
2023-02-13T13:10:14.097Z,13428.00
2023-02-13T13:15:21.351Z,13320.00
2023-02-13T13:20:28.522Z,13320.00
2023-02-13T13:25:35.806Z,13140.00
2023-02-13T13:30:43.179Z,13104.00
2023-02-13T13:35:50.376Z,12996.00
2023-02-13T13:40:57.884Z,12924.00
2023-02-13T13:46:04.803Z,12888.00
2023-02-13T13:51:11.938Z,12744.00
2023-02-13T13:56:19.212Z,12564.00
2023-02-13T14:01:26.528Z,12528.00
2023-02-13T14:06:33.591Z,12456.00
2023-02-13T14:11:40.790Z,12276.00
2023-02-13T14:16:48.014Z,12204.00
2023-02-13T14:21:55.142Z,11556.00
2023-02-13T14:27:06.241Z,10548.00
2023-02-13T14:32:09.714Z,10188.00
2023-02-13T14:37:16.714Z,9972.00
2023-02-13T14:42:23.876Z,9828.00
2023-02-13T14:47:31.168Z,9648.00
2023-02-13T14:52:38.355Z,9576.00
2023-02-13T14:57:45.548Z,9432.00
2023-02-13T15:02:52.750Z,9324.00
2023-02-13T15:07:59.907Z,9180.00
2023-02-13T15:13:07.092Z,8964.00
2023-02-13T15:18:14.402Z,8820.00
2023-02-13T15:23:21.655Z,8640.00
2023-02-13T15:28:28.810Z,8388.00
2023-02-13T15:33:38.327Z,8172.00
2023-02-13T15:38:43.233Z,7812.00
2023-02-13T15:43:50.798Z,7596.00
2023-02-13T15:48:58.099Z,7272.00
2023-02-13T15:54:05.579Z,6876.00
2023-02-13T15:59:13.195Z,6408.00
2023-02-13T16:04:20.554Z,5904.00
2023-02-13T16:09:27.689Z,5328.00
2023-02-13T16:14:35.225Z,4572.00
2023-02-13T16:19:42.864Z,3852.00
2023-02-13T16:24:50.176Z,3132.00
2023-02-13T16:29:57.393Z,2448.00
2023-02-13T16:35:04.661Z,1728.00
2023-02-13T16:40:11.926Z,1008.00
2023-02-13T16:45:19.382Z,468.00
2023-02-13T16:50:26.720Z,0.00
2023-02-13T16:55:33.911Z,-252.00
2023-02-13T17:00:41.537Z,-432.00
2023-02-13T17:05:55.730Z,-468.00
2023-02-13T17:11:02.614Z,-504.00
2023-02-13T17:16:10.642Z,-504.00
2023-02-13T17:21:17.965Z,-504.00
2023-02-13T17:26:25.710Z,-540.00
2023-02-13T17:31:33.429Z,-540.00
2023-02-13T17:36:40.669Z,-504.00
2023-02-13T17:41:48.248Z,-504.00
2023-02-13T17:46:55.857Z,-540.00
2023-02-13T17:52:03.597Z,-504.00
2023-02-13T17:57:11.186Z,-540.00
2023-02-13T18:02:18.884Z,-504.00
2023-02-13T18:07:26.447Z,-540.00
2023-02-13T18:12:34.026Z,-540.00
2023-02-13T18:17:41.655Z,1296.00
2023-02-13T18:22:49.009Z,1224.00
2023-02-13T18:27:56.466Z,-36.00
2023-02-13T18:33:04.174Z,-72.00
2023-02-13T18:38:11.819Z,-36.00
2023-02-13T18:43:19.404Z,-72.00
2023-02-13T18:48:27.125Z,-72.00
2023-02-13T18:53:34.766Z,-36.00
2023-02-13T18:58:42.325Z,-432.00
2023-02-13T19:03:49.671Z,-468.00
2023-02-13T19:08:56.945Z,-468.00
2023-02-13T19:14:04.391Z,-468.00
2023-02-13T19:19:11.893Z,-468.00
2023-02-13T19:24:19.531Z,-468.00
2023-02-13T19:29:26.830Z,-540.00
2023-02-13T19:34:34.433Z,-540.00
2023-02-13T19:39:42.142Z,-540.00
2023-02-13T19:44:49.722Z,-540.00
2023-02-13T19:49:57.580Z,-540.00
2023-02-13T19:55:06.145Z,-540.00
2023-02-13T20:00:13.939Z,684.00
2023-02-13T20:05:21.624Z,792.00
2023-02-13T20:10:29.501Z,8820.00
2023-02-13T20:15:37.187Z,8604.00
2023-02-13T20:20:44.556Z,8604.00
2023-02-13T20:25:51.971Z,8532.00
2023-02-13T20:30:59.831Z,8784.00
2023-02-13T20:36:07.034Z,8496.00
2023-02-13T20:41:14.676Z,8496.00
2023-02-13T20:46:22.016Z,8532.00
2023-02-13T20:51:29.568Z,8532.00
2023-02-13T20:56:37.264Z,8568.00
2023-02-13T21:01:44.899Z,8496.00
2023-02-13T21:06:52.506Z,8424.00
2023-02-13T21:12:00.249Z,8100.00
2023-02-13T21:17:07.584Z,7956.00
2023-02-13T21:22:15.043Z,8064.00
2023-02-13T21:27:22.459Z,7992.00
2023-02-13T21:32:29.917Z,8316.00
2023-02-13T21:37:37.175Z,8208.00
2023-02-13T21:42:44.720Z,8208.00
2023-02-13T21:47:52.006Z,7956.00
2023-02-13T21:52:59.295Z,8352.00
2023-02-13T21:58:06.511Z,8280.00
2023-02-13T22:03:14.191Z,8172.00
2023-02-13T22:08:21.348Z,8064.00
2023-02-13T22:13:28.566Z,8100.00
2023-02-13T22:18:35.729Z,8244.00
2023-02-13T22:23:42.959Z,8244.00
2023-02-13T22:28:50.234Z,8316.00
2023-02-13T22:34:05.551Z,8352.00
2023-02-13T22:39:04.587Z,8496.00
2023-02-13T22:44:11.888Z,8352.00
2023-02-13T22:49:18.936Z,8496.00
2023-02-13T22:54:26.118Z,8100.00
2023-02-13T22:59:33.435Z,8316.00
2023-02-13T23:04:40.746Z,8172.00
2023-02-13T23:09:47.790Z,8604.00
2023-02-13T23:14:55.009Z,8172.00
2023-02-13T23:20:02.162Z,8280.00
2023-02-13T23:25:09.335Z,8460.00
2023-02-13T23:30:16.593Z,8316.00
2023-02-13T23:35:23.681Z,8316.00
2023-02-13T23:40:30.974Z,8460.00
2023-02-13T23:45:38.262Z,8460.00
2023-02-13T23:50:45.431Z,8424.00
2023-02-13T23:55:52.615Z,8280.00
